createdAt,value
2018-12-26T00:00:15.401Z,4.70
2018-12-26T00:06:19.947Z,4.70
2018-12-26T00:12:24.518Z,4.60
2018-12-26T00:18:29.205Z,4.60
2018-12-26T00:24:33.809Z,4.60
2018-12-26T00:30:38.388Z,4.60
2018-12-26T00:36:43.066Z,4.60
2018-12-26T00:42:47.625Z,4.60
2018-12-26T00:48:52.199Z,4.50
2018-12-26T00:54:56.761Z,4.50
2018-12-26T01:01:01.343Z,4.50
2018-12-26T01:07:18.943Z,4.50
2018-12-26T01:13:23.522Z,4.50
2018-12-26T01:19:28.094Z,4.40
2018-12-26T01:25:32.663Z,4.40
2018-12-26T01:31:37.219Z,4.40
2018-12-26T01:37:41.808Z,4.40
2018-12-26T01:43:46.368Z,4.40
2018-12-26T01:49:50.979Z,4.30
2018-12-26T01:55:55.533Z,4.30
2018-12-26T02:02:00.204Z,4.30
2018-12-26T02:08:04.761Z,4.30
2018-12-26T02:14:09.341Z,4.30
2018-12-26T02:20:16.649Z,4.30
2018-12-26T02:26:21.202Z,4.30
2018-12-26T02:32:25.777Z,4.30
2018-12-26T02:38:30.344Z,4.20
2018-12-26T02:44:34.903Z,4.30
2018-12-26T02:50:39.702Z,4.30
2018-12-26T02:56:47.765Z,4.30
2018-12-26T03:02:53.359Z,4.20
2018-12-26T03:08:57.926Z,4.20
2018-12-26T03:15:02.512Z,4.20
2018-12-26T03:21:07.136Z,4.20
2018-12-26T03:27:11.703Z,4.20
2018-12-26T03:33:16.249Z,4.10
2018-12-26T03:39:21.049Z,4.10
2018-12-26T03:45:25.951Z,4.10
2018-12-26T03:51:30.564Z,4.10
2018-12-26T03:57:35.343Z,4.10
2018-12-26T04:03:40.052Z,4.10
2018-12-26T04:09:44.939Z,4.00
2018-12-26T04:15:49.581Z,4.00
2018-12-26T04:21:54.219Z,4.00
2018-12-26T04:27:58.774Z,3.90
2018-12-26T04:34:03.409Z,3.80
2018-12-26T04:40:08.115Z,3.70
2018-12-26T04:46:12.674Z,3.70
2018-12-26T04:52:17.251Z,3.70
2018-12-26T04:58:21.815Z,3.60
2018-12-26T05:04:26.385Z,3.60
2018-12-26T05:10:30.934Z,3.60
2018-12-26T05:16:35.579Z,3.50
2018-12-26T05:22:40.225Z,3.50
2018-12-26T05:28:44.859Z,3.60
2018-12-26T05:34:49.482Z,3.60
2018-12-26T05:40:54.124Z,3.70
2018-12-26T05:46:58.700Z,3.70
2018-12-26T05:53:03.397Z,3.70
2018-12-26T05:59:07.980Z,3.60
2018-12-26T06:05:12.553Z,3.70
2018-12-26T06:11:17.116Z,3.50
2018-12-26T06:17:21.753Z,3.50
2018-12-26T06:23:26.325Z,3.40
2018-12-26T06:29:30.884Z,3.30
2018-12-26T06:35:35.448Z,3.40
2018-12-26T06:41:40.097Z,3.30
2018-12-26T06:47:44.655Z,3.30
2018-12-26T06:53:49.295Z,3.30
2018-12-26T06:59:53.849Z,3.30
2018-12-26T07:05:58.428Z,3.30
2018-12-26T07:12:02.975Z,3.20
2018-12-26T07:18:07.553Z,3.20
2018-12-26T07:24:12.174Z,3.10
2018-12-26T07:30:16.882Z,3.10
2018-12-26T07:36:21.425Z,3.10
2018-12-26T07:42:25.975Z,3.10
2018-12-26T07:48:30.535Z,3.10
2018-12-26T07:54:35.195Z,3.00
2018-12-26T08:00:39.741Z,3.00
2018-12-26T08:06:44.289Z,2.90
2018-12-26T08:12:48.880Z,2.90
2018-12-26T08:18:53.440Z,2.90
2018-12-26T08:24:58.003Z,2.90
2018-12-26T08:31:02.553Z,2.90
2018-12-26T08:37:07.123Z,2.90
2018-12-26T08:43:11.681Z,3.00
2018-12-26T08:49:16.254Z,2.90
2018-12-26T08:55:22.497Z,3.00
2018-12-26T09:01:27.136Z,3.10
2018-12-26T09:07:31.766Z,3.20
2018-12-26T09:13:36.323Z,3.30
2018-12-26T09:19:40.883Z,3.40
2018-12-26T09:25:45.580Z,3.40
2018-12-26T09:31:50.207Z,3.50
2018-12-26T09:37:54.754Z,3.40
2018-12-26T09:43:59.311Z,3.50
2018-12-26T09:50:04.527Z,3.50
2018-12-26T09:56:09.144Z,3.40
2018-12-26T10:02:13.778Z,3.40
2018-12-26T10:08:18.342Z,3.60
2018-12-26T10:14:22.919Z,3.60
2018-12-26T10:20:27.477Z,3.60
2018-12-26T10:26:32.058Z,3.70
2018-12-26T10:32:36.620Z,3.70
2018-12-26T10:38:41.197Z,3.70
2018-12-26T10:44:45.859Z,3.80
2018-12-26T10:50:51.931Z,3.80
2018-12-26T10:56:56.556Z,3.80
2018-12-26T11:03:01.211Z,3.80
2018-12-26T11:09:07.229Z,3.80
2018-12-26T11:15:11.869Z,3.80
2018-12-26T11:21:16.493Z,3.80
2018-12-26T11:27:21.126Z,3.80
2018-12-26T11:33:25.681Z,3.70
2018-12-26T11:39:30.421Z,3.70
2018-12-26T11:45:35.008Z,3.80
2018-12-26T11:51:39.662Z,3.70
2018-12-26T11:57:44.238Z,3.80
2018-12-26T12:03:48.793Z,3.80
2018-12-26T12:09:53.420Z,3.90
2018-12-26T12:15:58.075Z,3.90
2018-12-26T12:22:02.780Z,3.90
2018-12-26T12:28:07.429Z,3.80
2018-12-26T12:34:11.995Z,3.80
2018-12-26T12:40:16.605Z,3.80
2018-12-26T12:46:21.230Z,3.80
2018-12-26T12:52:25.801Z,3.80
2018-12-26T12:58:30.694Z,3.90
2018-12-26T13:04:35.331Z,3.90
2018-12-26T13:10:39.996Z,3.90
2018-12-26T13:16:44.570Z,4.00
2018-12-26T13:22:49.224Z,4.10
2018-12-26T13:28:53.794Z,4.10
2018-12-26T13:34:58.343Z,4.20
2018-12-26T13:41:02.989Z,4.20
2018-12-26T13:47:07.550Z,4.20
2018-12-26T13:53:12.175Z,4.30
2018-12-26T13:59:17.588Z,4.30
2018-12-26T14:05:22.146Z,4.30
2018-12-26T14:11:26.716Z,4.30
2018-12-26T14:17:31.295Z,4.30
2018-12-26T14:23:35.867Z,4.40
2018-12-26T14:29:42.429Z,4.30
2018-12-26T14:36:00.040Z,4.40
2018-12-26T14:42:04.646Z,4.50
2018-12-26T14:48:09.217Z,4.50
2018-12-26T14:54:13.775Z,4.60
2018-12-26T15:00:20.060Z,4.70
2018-12-26T15:06:24.621Z,4.70
2018-12-26T15:12:29.183Z,4.70
2018-12-26T15:18:33.762Z,4.70
2018-12-26T15:24:38.307Z,4.70
2018-12-26T15:30:42.940Z,4.70
2018-12-26T15:36:47.506Z,4.80
2018-12-26T15:42:52.059Z,4.80
2018-12-26T15:48:56.622Z,4.90
2018-12-26T15:55:01.213Z,4.90
2018-12-26T16:01:05.809Z,4.90
2018-12-26T16:07:10.402Z,4.90
2018-12-26T16:13:14.960Z,4.80
2018-12-26T16:19:19.517Z,4.90
2018-12-26T16:25:24.074Z,5.00
2018-12-26T16:31:28.629Z,5.00
2018-12-26T16:37:33.268Z,4.90
2018-12-26T16:43:37.905Z,4.90
2018-12-26T16:49:42.493Z,4.90
2018-12-26T16:55:47.072Z,5.00
2018-12-26T17:01:51.689Z,5.00
2018-12-26T17:07:56.255Z,5.00
2018-12-26T17:14:00.821Z,5.00
2018-12-26T17:20:06.699Z,5.00
2018-12-26T17:26:11.265Z,5.00
2018-12-26T17:32:15.860Z,5.00
2018-12-26T17:38:20.430Z,5.10
2018-12-26T17:44:24.988Z,5.10
2018-12-26T17:50:42.928Z,5.00
2018-12-26T17:56:51.296Z,5.00
2018-12-26T18:02:55.872Z,4.90
2018-12-26T18:09:00.469Z,4.80
2018-12-26T18:15:05.949Z,4.80
2018-12-26T18:21:10.510Z,4.70
2018-12-26T18:27:15.148Z,4.70
2018-12-26T18:33:19.783Z,4.70
2018-12-26T18:39:24.344Z,4.70
2018-12-26T18:45:28.920Z,4.70
2018-12-26T18:51:33.501Z,4.80
2018-12-26T18:57:38.189Z,4.80
2018-12-26T19:03:42.751Z,4.90
2018-12-26T19:09:47.339Z,4.90
2018-12-26T19:15:51.885Z,4.90
2018-12-26T19:21:56.451Z,4.90
2018-12-26T19:28:01.039Z,4.90
2018-12-26T19:34:05.667Z,4.90
2018-12-26T19:40:10.232Z,4.90
2018-12-26T19:46:14.821Z,4.90
2018-12-26T19:52:19.433Z,4.90
2018-12-26T19:58:24.008Z,4.90
2018-12-26T20:04:28.564Z,4.90
2018-12-26T20:10:33.122Z,4.90
2018-12-26T20:16:37.661Z,5.00
2018-12-26T20:22:42.250Z,4.90
2018-12-26T20:28:46.836Z,4.90
2018-12-26T20:34:51.380Z,4.80
2018-12-26T20:40:55.999Z,4.80
2018-12-26T20:47:00.556Z,4.80
2018-12-26T20:53:05.283Z,4.90
2018-12-26T20:59:09.831Z,4.80
2018-12-26T21:05:14.459Z,4.90
2018-12-26T21:11:19.032Z,4.90
2018-12-26T21:17:23.671Z,4.90
2018-12-26T21:23:28.230Z,4.90
2018-12-26T21:29:32.803Z,4.90
2018-12-26T21:35:37.437Z,4.80
2018-12-26T21:41:41.988Z,4.80
2018-12-26T21:47:46.559Z,4.80
2018-12-26T21:53:51.122Z,4.90
2018-12-26T21:59:55.706Z,4.90
2018-12-26T22:06:00.253Z,4.90
2018-12-26T22:12:04.824Z,4.90
2018-12-26T22:18:09.398Z,4.90
2018-12-26T22:24:13.942Z,5.00
2018-12-26T22:30:20.535Z,5.00
2018-12-26T22:36:25.093Z,5.10
2018-12-26T22:42:29.658Z,5.00
2018-12-26T22:48:34.295Z,5.10
2018-12-26T22:54:38.874Z,5.10
2018-12-26T23:00:44.746Z,5.10
2018-12-26T23:06:49.299Z,5.20
2018-12-26T23:12:53.869Z,5.20
2018-12-26T23:18:58.451Z,5.20
2018-12-26T23:25:03.024Z,5.10
2018-12-26T23:31:07.617Z,5.10
2018-12-26T23:37:12.187Z,5.10
2018-12-26T23:43:16.737Z,5.10
2018-12-26T23:49:21.310Z,5.20
2018-12-26T23:55:25.940Z,5.20
